sensor_id;sensor_type;location;lat;lon;timestamp;temperature;humidity
46159;DHT22;31888;44.512;26.104;2023-07-22T00:01:46;23.90;97.40
46159;DHT22;31888;44.512;26.104;2023-07-22T00:04:10;23.90;97.40
46159;DHT22;31888;44.512;26.104;2023-07-22T00:06:35;23.90;97.40
46159;DHT22;31888;44.512;26.104;2023-07-22T00:08:59;23.90;97.40
46159;DHT22;31888;44.512;26.104;2023-07-22T00:11:23;23.90;97.50
46159;DHT22;31888;44.512;26.104;2023-07-22T00:13:47;23.90;97.40
46159;DHT22;31888;44.512;26.104;2023-07-22T00:16:10;23.90;97.40
46159;DHT22;31888;44.512;26.104;2023-07-22T00:18:35;23.90;97.50
46159;DHT22;31888;44.512;26.104;2023-07-22T00:20:59;23.90;97.40
46159;DHT22;31888;44.512;26.104;2023-07-22T00:23:24;23.90;97.60
46159;DHT22;31888;44.512;26.104;2023-07-22T00:25:48;24.00;97.70
46159;DHT22;31888;44.512;26.104;2023-07-22T00:28:12;24.10;96.90
46159;DHT22;31888;44.512;26.104;2023-07-22T00:30:36;24.30;96.20
46159;DHT22;31888;44.512;26.104;2023-07-22T00:32:59;24.40;95.50
46159;DHT22;31888;44.512;26.104;2023-07-22T00:35:23;24.50;95.30
46159;DHT22;31888;44.512;26.104;2023-07-22T00:37:47;24.70;94.80
46159;DHT22;31888;44.512;26.104;2023-07-22T00:40:13;24.90;94.70
46159;DHT22;31888;44.512;26.104;2023-07-22T00:42:38;25.00;95.90
46159;DHT22;31888;44.512;26.104;2023-07-22T00:45:02;24.80;98.60
46159;DHT22;31888;44.512;26.104;2023-07-22T00:47:26;24.10;99.90
46159;DHT22;31888;44.512;26.104;2023-07-22T00:49:51;23.50;99.90
46159;DHT22;31888;44.512;26.104;2023-07-22T00:52:15;22.70;99.90
46159;DHT22;31888;44.512;26.104;2023-07-22T00:54:40;22.40;99.90
46159;DHT22;31888;44.512;26.104;2023-07-22T00:57:06;21.90;99.90
46159;DHT22;31888;44.512;26.104;2023-07-22T00:59:31;21.70;99.90
46159;DHT22;31888;44.512;26.104;2023-07-22T01:01:55;21.70;99.90
46159;DHT22;31888;44.512;26.104;2023-07-22T01:04:20;21.70;99.90
46159;DHT22;31888;44.512;26.104;2023-07-22T01:06:44;21.70;99.90
46159;DHT22;31888;44.512;26.104;2023-07-22T01:09:09;21.60;99.90
46159;DHT22;31888;44.512;26.104;2023-07-22T01:11:33;21.40;99.90
46159;DHT22;31888;44.512;26.104;2023-07-22T01:13:58;21.30;99.90
46159;DHT22;31888;44.512;26.104;2023-07-22T01:16:22;21.20;99.90
46159;DHT22;31888;44.512;26.104;2023-07-22T01:18:47;21.20;99.90
46159;DHT22;31888;44.512;26.104;2023-07-22T01:21:12;21.20;99.90
46159;DHT22;31888;44.512;26.104;2023-07-22T01:23:39;21.20;99.90
46159;DHT22;31888;44.512;26.104;2023-07-22T01:26:03;21.20;99.90
46159;DHT22;31888;44.512;26.104;2023-07-22T01:28:27;21.10;99.90
46159;DHT22;31888;44.512;26.104;2023-07-22T01:30:52;21.00;99.90
46159;DHT22;31888;44.512;26.104;2023-07-22T01:33:16;20.90;99.90
46159;DHT22;31888;44.512;26.104;2023-07-22T01:35:40;20.80;99.90
46159;DHT22;31888;44.512;26.104;2023-07-22T01:38:04;20.80;99.90
46159;DHT22;31888;44.512;26.104;2023-07-22T01:40:31;20.70;99.90
46159;DHT22;31888;44.512;26.104;2023-07-22T01:42:55;20.70;99.90
46159;DHT22;31888;44.512;26.104;2023-07-22T01:45:19;20.70;99.90
46159;DHT22;31888;44.512;26.104;2023-07-22T01:47:43;20.70;99.90
46159;DHT22;31888;44.512;26.104;2023-07-22T01:50:08;20.70;99.90
46159;DHT22;31888;44.512;26.104;2023-07-22T01:52:34;20.80;99.90
46159;DHT22;31888;44.512;26.104;2023-07-22T01:54:58;20.90;99.90
46159;DHT22;31888;44.512;26.104;2023-07-22T01:57:24;20.80;99.90
46159;DHT22;31888;44.512;26.104;2023-07-22T01:59:48;20.90;99.90
46159;DHT22;31888;44.512;26.104;2023-07-22T02:02:12;21.00;99.90
46159;DHT22;31888;44.512;26.104;2023-07-22T02:04:36;21.00;99.90
46159;DHT22;31888;44.512;26.104;2023-07-22T02:06:59;20.90;99.90
46159;DHT22;31888;44.512;26.104;2023-07-22T02:09:23;20.90;99.90
46159;DHT22;31888;44.512;26.104;2023-07-22T02:11:47;20.70;99.90
46159;DHT22;31888;44.512;26.104;2023-07-22T02:14:12;20.70;99.90
46159;DHT22;31888;44.512;26.104;2023-07-22T02:16:37;20.70;99.90
46159;DHT22;31888;44.512;26.104;2023-07-22T02:19:01;20.60;99.90
46159;DHT22;31888;44.512;26.104;2023-07-22T02:21:31;20.70;99.90
46159;DHT22;31888;44.512;26.104;2023-07-22T02:23:55;20.70;99.90
46159;DHT22;31888;44.512;26.104;2023-07-22T02:26:19;20.60;99.90
46159;DHT22;31888;44.512;26.104;2023-07-22T02:28:42;20.60;99.90
46159;DHT22;31888;44.512;26.104;2023-07-22T02:31:08;20.60;99.90
46159;DHT22;31888;44.512;26.104;2023-07-22T02:33:33;20.60;99.90
46159;DHT22;31888;44.512;26.104;2023-07-22T02:35:57;20.60;99.90
46159;DHT22;31888;44.512;26.104;2023-07-22T02:38:21;20.50;99.90
46159;DHT22;31888;44.512;26.104;2023-07-22T02:40:45;20.50;99.90
46159;DHT22;31888;44.512;26.104;2023-07-22T02:43:09;20.50;99.90
46159;DHT22;31888;44.512;26.104;2023-07-22T02:45:33;20.60;99.90
46159;DHT22;31888;44.512;26.104;2023-07-22T02:47:58;20.70;99.90
46159;DHT22;31888;44.512;26.104;2023-07-22T02:50:22;20.70;99.90
46159;DHT22;31888;44.512;26.104;2023-07-22T02:52:46;20.80;99.90
46159;DHT22;31888;44.512;26.104;2023-07-22T02:55:12;20.80;99.90
46159;DHT22;31888;44.512;26.104;2023-07-22T02:57:36;20.90;99.90
46159;DHT22;31888;44.512;26.104;2023-07-22T03:00:00;21.00;99.90
46159;DHT22;31888;44.512;26.104;2023-07-22T03:02:29;21.00;99.90
46159;DHT22;31888;44.512;26.104;2023-07-22T03:04:54;21.00;99.90
46159;DHT22;31888;44.512;26.104;2023-07-22T03:07:18;21.00;99.90
46159;DHT22;31888;44.512;26.104;2023-07-22T03:09:43;21.00;99.90
46159;DHT22;31888;44.512;26.104;2023-07-22T03:12:07;21.00;99.90
46159;DHT22;31888;44.512;26.104;2023-07-22T03:14:31;21.10;99.90
46159;DHT22;31888;44.512;26.104;2023-07-22T03:16:58;21.10;99.90
46159;DHT22;31888;44.512;26.104;2023-07-22T03:19:22;21.20;99.90
46159;DHT22;31888;44.512;26.104;2023-07-22T03:21:47;21.20;99.90
46159;DHT22;31888;44.512;26.104;2023-07-22T03:24:11;21.20;99.90
46159;DHT22;31888;44.512;26.104;2023-07-22T03:26:35;21.20;99.90
46159;DHT22;31888;44.512;26.104;2023-07-22T03:28:59;21.30;99.90
46159;DHT22;31888;44.512;26.104;2023-07-22T03:31:23;21.60;99.90
46159;DHT22;31888;44.512;26.104;2023-07-22T03:33:47;21.80;99.90
46159;DHT22;31888;44.512;26.104;2023-07-22T03:36:12;22.20;99.90
46159;DHT22;31888;44.512;26.104;2023-07-22T03:38:37;22.50;99.90
46159;DHT22;31888;44.512;26.104;2023-07-22T03:41:01;22.60;99.90
46159;DHT22;31888;44.512;26.104;2023-07-22T03:43:25;22.60;99.90
46159;DHT22;31888;44.512;26.104;2023-07-22T03:45:49;22.70;99.90
46159;DHT22;31888;44.512;26.104;2023-07-22T03:48:13;22.80;99.90
46159;DHT22;31888;44.512;26.104;2023-07-22T03:50:37;23.30;99.90
46159;DHT22;31888;44.512;26.104;2023-07-22T03:53:01;23.70;99.90
46159;DHT22;31888;44.512;26.104;2023-07-22T03:55:26;24.30;99.90
46159;DHT22;31888;44.512;26.104;2023-07-22T03:57:50;24.60;99.90
46159;DHT22;31888;44.512;26.104;2023-07-22T04:00:14;25.00;99.90
46159;DHT22;31888;44.512;26.104;2023-07-22T04:02:38;25.30;99.90
46159;DHT22;31888;44.512;26.104;2023-07-22T04:05:03;25.90;99.90
46159;DHT22;31888;44.512;26.104;2023-07-22T04:07:26;26.40;99.90
46159;DHT22;31888;44.512;26.104;2023-07-22T04:09:50;26.60;99.90
46159;DHT22;31888;44.512;26.104;2023-07-22T04:12:16;26.80;99.90
46159;DHT22;31888;44.512;26.104;2023-07-22T04:14:40;27.30;99.90
46159;DHT22;31888;44.512;26.104;2023-07-22T04:17:04;27.70;99.90
46159;DHT22;31888;44.512;26.104;2023-07-22T04:19:28;28.00;99.50
46159;DHT22;31888;44.512;26.104;2023-07-22T04:21:53;28.30;98.90
46159;DHT22;31888;44.512;26.104;2023-07-22T04:24:17;28.70;98.50
46159;DHT22;31888;44.512;26.104;2023-07-22T04:26:42;29.10;97.70
46159;DHT22;31888;44.512;26.104;2023-07-22T04:29:08;29.40;96.90
46159;DHT22;31888;44.512;26.104;2023-07-22T04:31:34;29.50;96.70
46159;DHT22;31888;44.512;26.104;2023-07-22T04:33:58;29.80;96.70
46159;DHT22;31888;44.512;26.104;2023-07-22T04:36:21;30.40;95.70
46159;DHT22;31888;44.512;26.104;2023-07-22T04:38:46;30.60;94.70
46159;DHT22;31888;44.512;26.104;2023-07-22T04:41:09;31.40;93.30
46159;DHT22;31888;44.512;26.104;2023-07-22T04:43:33;31.80;93.20
46159;DHT22;31888;44.512;26.104;2023-07-22T04:45:58;31.90;92.40
46159;DHT22;31888;44.512;26.104;2023-07-22T04:48:22;32.50;91.80
46159;DHT22;31888;44.512;26.104;2023-07-22T04:50:46;32.90;91.30
46159;DHT22;31888;44.512;26.104;2023-07-22T04:53:10;32.70;91.20
46159;DHT22;31888;44.512;26.104;2023-07-22T04:55:35;32.90;91.40
46159;DHT22;31888;44.512;26.104;2023-07-22T04:57:59;33.00;90.90
46159;DHT22;31888;44.512;26.104;2023-07-22T05:00:25;33.40;90.40
46159;DHT22;31888;44.512;26.104;2023-07-22T05:02:53;33.60;89.90
46159;DHT22;31888;44.512;26.104;2023-07-22T05:05:18;34.10;88.70
46159;DHT22;31888;44.512;26.104;2023-07-22T05:07:44;34.40;87.10
46159;DHT22;31888;44.512;26.104;2023-07-22T05:10:08;34.70;85.80
46159;DHT22;31888;44.512;26.104;2023-07-22T05:12:34;34.90;85.90
46159;DHT22;31888;44.512;26.104;2023-07-22T05:14:58;35.10;85.20
46159;DHT22;31888;44.512;26.104;2023-07-22T05:17:22;35.30;84.60
46159;DHT22;31888;44.512;26.104;2023-07-22T05:19:49;35.50;83.50
46159;DHT22;31888;44.512;26.104;2023-07-22T05:22:13;35.50;82.70
46159;DHT22;31888;44.512;26.104;2023-07-22T05:24:37;35.50;83.00
46159;DHT22;31888;44.512;26.104;2023-07-22T05:27:01;35.30;82.70
46159;DHT22;31888;44.512;26.104;2023-07-22T05:29:31;35.60;81.30
46159;DHT22;31888;44.512;26.104;2023-07-22T05:31:55;35.70;81.50
46159;DHT22;31888;44.512;26.104;2023-07-22T05:34:18;35.60;81.30
46159;DHT22;31888;44.512;26.104;2023-07-22T05:36:44;35.40;81.60
46159;DHT22;31888;44.512;26.104;2023-07-22T05:39:07;35.30;81.60
46159;DHT22;31888;44.512;26.104;2023-07-22T05:41:32;35.70;80.00
46159;DHT22;31888;44.512;26.104;2023-07-22T05:43:56;36.80;78.00
46159;DHT22;31888;44.512;26.104;2023-07-22T05:46:20;37.60;76.10
46159;DHT22;31888;44.512;26.104;2023-07-22T05:48:44;37.90;75.50
46159;DHT22;31888;44.512;26.104;2023-07-22T05:51:08;38.40;75.30
46159;DHT22;31888;44.512;26.104;2023-07-22T05:53:34;37.80;74.80
46159;DHT22;31888;44.512;26.104;2023-07-22T05:55:58;38.50;73.20
46159;DHT22;31888;44.512;26.104;2023-07-22T05:58:21;39.20;71.50
46159;DHT22;31888;44.512;26.104;2023-07-22T06:00:45;39.50;70.10
46159;DHT22;31888;44.512;26.104;2023-07-22T06:03:09;39.80;69.70
46159;DHT22;31888;44.512;26.104;2023-07-22T06:05:33;40.10;69.20
46159;DHT22;31888;44.512;26.104;2023-07-22T06:07:57;40.50;68.20
46159;DHT22;31888;44.512;26.104;2023-07-22T06:10:23;39.90;68.10
46159;DHT22;31888;44.512;26.104;2023-07-22T06:12:47;40.70;67.10
46159;DHT22;31888;44.512;26.104;2023-07-22T06:15:11;40.70;66.30
46159;DHT22;31888;44.512;26.104;2023-07-22T06:17:34;40.50;67.40
46159;DHT22;31888;44.512;26.104;2023-07-22T06:19:58;40.50;67.30
46159;DHT22;31888;44.512;26.104;2023-07-22T06:22:22;40.30;66.40
46159;DHT22;31888;44.512;26.104;2023-07-22T06:24:46;41.30;65.70
46159;DHT22;31888;44.512;26.104;2023-07-22T06:27:11;40.90;65.50
46159;DHT22;31888;44.512;26.104;2023-07-22T06:29:35;40.60;66.90
46159;DHT22;31888;44.512;26.104;2023-07-22T06:31:59;40.70;66.50
46159;DHT22;31888;44.512;26.104;2023-07-22T06:34:23;41.20;65.40
46159;DHT22;31888;44.512;26.104;2023-07-22T06:36:47;41.90;63.90
46159;DHT22;31888;44.512;26.104;2023-07-22T06:39:11;42.10;63.30
46159;DHT22;31888;44.512;26.104;2023-07-22T06:41:35;42.30;63.90
46159;DHT22;31888;44.512;26.104;2023-07-22T06:44:02;41.50;64.40
46159;DHT22;31888;44.512;26.104;2023-07-22T06:46:26;42.00;63.80
46159;DHT22;31888;44.512;26.104;2023-07-22T06:48:50;42.90;62.70
46159;DHT22;31888;44.512;26.104;2023-07-22T06:51:14;43.20;61.20
46159;DHT22;31888;44.512;26.104;2023-07-22T06:53:37;43.50;61.30
46159;DHT22;31888;44.512;26.104;2023-07-22T06:56:01;43.80;60.80
46159;DHT22;31888;44.512;26.104;2023-07-22T06:58:25;43.90;60.50
46159;DHT22;31888;44.512;26.104;2023-07-22T07:00:54;43.60;60.20
46159;DHT22;31888;44.512;26.104;2023-07-22T07:03:18;42.60;61.00
46159;DHT22;31888;44.512;26.104;2023-07-22T07:05:43;42.10;61.90
46159;DHT22;31888;44.512;26.104;2023-07-22T07:08:08;41.70;62.20
46159;DHT22;31888;44.512;26.104;2023-07-22T07:10:37;42.50;61.20
46159;DHT22;31888;44.512;26.104;2023-07-22T07:13:01;43.30;60.10
46159;DHT22;31888;44.512;26.104;2023-07-22T07:15:25;43.10;60.60
46159;DHT22;31888;44.512;26.104;2023-07-22T07:17:50;42.80;60.40
46159;DHT22;31888;44.512;26.104;2023-07-22T07:20:14;42.70;60.30
46159;DHT22;31888;44.512;26.104;2023-07-22T07:22:38;43.70;59.50
46159;DHT22;31888;44.512;26.104;2023-07-22T07:25:02;43.70;59.30
46159;DHT22;31888;44.512;26.104;2023-07-22T07:27:27;43.30;59.30
46159;DHT22;31888;44.512;26.104;2023-07-22T07:29:51;43.50;59.10
46159;DHT22;31888;44.512;26.104;2023-07-22T07:32:16;43.90;58.90
46159;DHT22;31888;44.512;26.104;2023-07-22T07:34:44;44.20;58.40
46159;DHT22;31888;44.512;26.104;2023-07-22T07:37:08;44.40;58.40
46159;DHT22;31888;44.512;26.104;2023-07-22T07:39:32;43.80;58.40
46159;DHT22;31888;44.512;26.104;2023-07-22T07:41:56;43.70;58.70
46159;DHT22;31888;44.512;26.104;2023-07-22T07:44:19;44.00;58.80
46159;DHT22;31888;44.512;26.104;2023-07-22T07:46:43;44.40;57.90
46159;DHT22;31888;44.512;26.104;2023-07-22T07:49:07;44.00;58.00
46159;DHT22;31888;44.512;26.104;2023-07-22T07:51:32;44.80;57.40
46159;DHT22;31888;44.512;26.104;2023-07-22T07:53:57;43.70;58.30
46159;DHT22;31888;44.512;26.104;2023-07-22T07:56:22;43.50;58.00
46159;DHT22;31888;44.512;26.104;2023-07-22T07:58:48;43.50;58.90
46159;DHT22;31888;44.512;26.104;2023-07-22T08:01:12;41.10;60.80
46159;DHT22;31888;44.512;26.104;2023-07-22T08:03:38;41.00;61.60
46159;DHT22;31888;44.512;26.104;2023-07-22T08:06:02;40.00;62.50
46159;DHT22;31888;44.512;26.104;2023-07-22T08:08:28;40.40;62.00
46159;DHT22;31888;44.512;26.104;2023-07-22T08:10:58;40.40;60.80
46159;DHT22;31888;44.512;26.104;2023-07-22T08:13:23;40.90;59.70
46159;DHT22;31888;44.512;26.104;2023-07-22T08:15:46;41.60;59.30
46159;DHT22;31888;44.512;26.104;2023-07-22T08:18:10;41.70;58.60
46159;DHT22;31888;44.512;26.104;2023-07-22T08:20:34;40.40;59.90
46159;DHT22;31888;44.512;26.104;2023-07-22T08:22:58;39.90;61.30
46159;DHT22;31888;44.512;26.104;2023-07-22T08:25:23;39.40;61.80
46159;DHT22;31888;44.512;26.104;2023-07-22T08:27:47;38.20;64.00
46159;DHT22;31888;44.512;26.104;2023-07-22T08:30:11;36.80;65.90
46159;DHT22;31888;44.512;26.104;2023-07-22T08:32:35;36.70;65.20
46159;DHT22;31888;44.512;26.104;2023-07-22T08:34:59;36.80;65.20
46159;DHT22;31888;44.512;26.104;2023-07-22T08:37:23;36.50;66.20
46159;DHT22;31888;44.512;26.104;2023-07-22T08:39:47;36.40;66.90
46159;DHT22;31888;44.512;26.104;2023-07-22T08:42:13;35.80;66.50
46159;DHT22;31888;44.512;26.104;2023-07-22T08:44:40;35.30;68.20
46159;DHT22;31888;44.512;26.104;2023-07-22T08:47:09;34.70;69.20
46159;DHT22;31888;44.512;26.104;2023-07-22T08:49:35;34.70;70.50
46159;DHT22;31888;44.512;26.104;2023-07-22T08:51:59;34.60;71.10
46159;DHT22;31888;44.512;26.104;2023-07-22T08:54:24;34.50;71.00
46159;DHT22;31888;44.512;26.104;2023-07-22T08:56:48;34.10;71.40
46159;DHT22;31888;44.512;26.104;2023-07-22T08:59:14;34.30;72.60
46159;DHT22;31888;44.512;26.104;2023-07-22T09:01:38;34.20;72.70
46159;DHT22;31888;44.512;26.104;2023-07-22T09:04:02;34.50;72.00
46159;DHT22;31888;44.512;26.104;2023-07-22T09:06:27;34.50;71.60
46159;DHT22;31888;44.512;26.104;2023-07-22T09:08:51;34.50;71.40
46159;DHT22;31888;44.512;26.104;2023-07-22T09:11:16;34.50;70.90
46159;DHT22;31888;44.512;26.104;2023-07-22T09:13:40;34.30;71.00
46159;DHT22;31888;44.512;26.104;2023-07-22T09:16:07;34.30;71.00
46159;DHT22;31888;44.512;26.104;2023-07-22T09:18:32;34.40;71.30
46159;DHT22;31888;44.512;26.104;2023-07-22T09:20:56;34.30;71.30
46159;DHT22;31888;44.512;26.104;2023-07-22T09:23:32;33.90;71.40
46159;DHT22;31888;44.512;26.104;2023-07-22T09:26:08;33.70;72.80
46159;DHT22;31888;44.512;26.104;2023-07-22T09:28:47;33.50;73.80
46159;DHT22;31888;44.512;26.104;2023-07-22T09:31:12;33.40;75.40
46159;DHT22;31888;44.512;26.104;2023-07-22T09:33:36;33.50;74.70
46159;DHT22;31888;44.512;26.104;2023-07-22T09:36:04;33.20;74.80
46159;DHT22;31888;44.512;26.104;2023-07-22T09:38:28;33.00;75.90
46159;DHT22;31888;44.512;26.104;2023-07-22T09:40:52;32.90;75.60
46159;DHT22;31888;44.512;26.104;2023-07-22T09:43:16;32.60;77.40
46159;DHT22;31888;44.512;26.104;2023-07-22T09:45:40;32.70;76.50
46159;DHT22;31888;44.512;26.104;2023-07-22T09:48:05;32.80;76.00
46159;DHT22;31888;44.512;26.104;2023-07-22T09:50:30;33.10;74.50
46159;DHT22;31888;44.512;26.104;2023-07-22T09:52:55;32.80;75.60
46159;DHT22;31888;44.512;26.104;2023-07-22T09:55:21;32.80;75.00
46159;DHT22;31888;44.512;26.104;2023-07-22T09:57:47;32.90;75.50
46159;DHT22;31888;44.512;26.104;2023-07-22T10:00:12;32.60;76.40
46159;DHT22;31888;44.512;26.104;2023-07-22T10:02:38;32.60;76.30
46159;DHT22;31888;44.512;26.104;2023-07-22T10:05:05;32.60;76.70
46159;DHT22;31888;44.512;26.104;2023-07-22T10:07:31;32.50;77.10
46159;DHT22;31888;44.512;26.104;2023-07-22T10:09:58;32.50;77.40
46159;DHT22;31888;44.512;26.104;2023-07-22T10:12:22;32.60;77.50
46159;DHT22;31888;44.512;26.104;2023-07-22T10:14:47;32.70;77.20
46159;DHT22;31888;44.512;26.104;2023-07-22T10:17:12;32.80;76.30
46159;DHT22;31888;44.512;26.104;2023-07-22T10:19:36;32.90;76.00
46159;DHT22;31888;44.512;26.104;2023-07-22T10:22:03;32.80;76.30
46159;DHT22;31888;44.512;26.104;2023-07-22T10:24:29;32.80;76.00
46159;DHT22;31888;44.512;26.104;2023-07-22T10:26:54;32.60;76.60
46159;DHT22;31888;44.512;26.104;2023-07-22T10:29:20;32.30;76.60
46159;DHT22;31888;44.512;26.104;2023-07-22T10:31:44;32.50;77.50
46159;DHT22;31888;44.512;26.104;2023-07-22T10:34:07;32.60;77.10
46159;DHT22;31888;44.512;26.104;2023-07-22T10:36:31;32.50;76.10
46159;DHT22;31888;44.512;26.104;2023-07-22T10:38:58;32.50;76.60
46159;DHT22;31888;44.512;26.104;2023-07-22T10:41:25;32.60;76.70
46159;DHT22;31888;44.512;26.104;2023-07-22T10:43:54;32.30;78.40
46159;DHT22;31888;44.512;26.104;2023-07-22T10:46:31;32.50;77.20
46159;DHT22;31888;44.512;26.104;2023-07-22T10:49:07;32.60;75.60
46159;DHT22;31888;44.512;26.104;2023-07-22T10:51:35;32.60;75.70
46159;DHT22;31888;44.512;26.104;2023-07-22T10:54:01;32.70;75.70
46159;DHT22;31888;44.512;26.104;2023-07-22T10:56:25;32.60;75.70
46159;DHT22;31888;44.512;26.104;2023-07-22T10:59:00;32.70;76.00
46159;DHT22;31888;44.512;26.104;2023-07-22T11:01:30;32.70;76.70
46159;DHT22;31888;44.512;26.104;2023-07-22T11:04:09;32.60;76.80
46159;DHT22;31888;44.512;26.104;2023-07-22T11:06:35;32.50;78.10
46159;DHT22;31888;44.512;26.104;2023-07-22T11:08:59;32.60;76.90
46159;DHT22;31888;44.512;26.104;2023-07-22T11:11:35;32.70;76.10
46159;DHT22;31888;44.512;26.104;2023-07-22T11:14:13;32.80;77.00
46159;DHT22;31888;44.512;26.104;2023-07-22T11:16:37;32.80;77.10
46159;DHT22;31888;44.512;26.104;2023-07-22T11:19:01;32.70;77.50
46159;DHT22;31888;44.512;26.104;2023-07-22T11:21:25;32.80;77.80
46159;DHT22;31888;44.512;26.104;2023-07-22T11:23:49;32.90;78.50
46159;DHT22;31888;44.512;26.104;2023-07-22T11:26:13;32.80;77.80
46159;DHT22;31888;44.512;26.104;2023-07-22T11:28:38;32.90;77.30
46159;DHT22;31888;44.512;26.104;2023-07-22T11:31:04;32.90;76.80
46159;DHT22;31888;44.512;26.104;2023-07-22T11:33:38;33.00;76.50
46159;DHT22;31888;44.512;26.104;2023-07-22T11:36:03;32.90;75.90
46159;DHT22;31888;44.512;26.104;2023-07-22T11:38:27;32.90;75.90
46159;DHT22;31888;44.512;26.104;2023-07-22T11:40:52;33.00;75.30
46159;DHT22;31888;44.512;26.104;2023-07-22T11:43:15;33.10;75.70
46159;DHT22;31888;44.512;26.104;2023-07-22T11:45:43;33.20;74.40
46159;DHT22;31888;44.512;26.104;2023-07-22T11:48:09;33.20;74.80
46159;DHT22;31888;44.512;26.104;2023-07-22T11:50:34;33.10;75.50
46159;DHT22;31888;44.512;26.104;2023-07-22T11:52:58;33.20;75.10
46159;DHT22;31888;44.512;26.104;2023-07-22T11:55:23;33.20;72.60
46159;DHT22;31888;44.512;26.104;2023-07-22T11:57:57;33.30;73.10
46159;DHT22;31888;44.512;26.104;2023-07-22T12:00:21;33.30;72.80
46159;DHT22;31888;44.512;26.104;2023-07-22T12:02:47;33.30;73.20
46159;DHT22;31888;44.512;26.104;2023-07-22T12:05:12;33.30;72.90
46159;DHT22;31888;44.512;26.104;2023-07-22T12:07:36;33.30;73.60
46159;DHT22;31888;44.512;26.104;2023-07-22T12:10:03;33.30;72.70
46159;DHT22;31888;44.512;26.104;2023-07-22T12:12:34;33.30;74.10
46159;DHT22;31888;44.512;26.104;2023-07-22T12:15:02;33.40;74.20
46159;DHT22;31888;44.512;26.104;2023-07-22T12:17:26;33.40;73.10
46159;DHT22;31888;44.512;26.104;2023-07-22T12:19:54;33.50;72.60
46159;DHT22;31888;44.512;26.104;2023-07-22T12:22:21;33.50;72.90
46159;DHT22;31888;44.512;26.104;2023-07-22T12:24:47;33.60;73.10
46159;DHT22;31888;44.512;26.104;2023-07-22T12:27:11;33.50;72.80
46159;DHT22;31888;44.512;26.104;2023-07-22T12:29:34;33.60;72.80
46159;DHT22;31888;44.512;26.104;2023-07-22T12:31:58;33.60;72.10
46159;DHT22;31888;44.512;26.104;2023-07-22T12:34:22;33.60;71.70
46159;DHT22;31888;44.512;26.104;2023-07-22T12:36:47;33.50;71.20
46159;DHT22;31888;44.512;26.104;2023-07-22T12:39:11;33.50;71.80
46159;DHT22;31888;44.512;26.104;2023-07-22T12:41:35;33.60;72.40
46159;DHT22;31888;44.512;26.104;2023-07-22T12:43:59;33.70;71.80
46159;DHT22;31888;44.512;26.104;2023-07-22T12:46:23;33.70;72.30
46159;DHT22;31888;44.512;26.104;2023-07-22T12:48:47;33.70;71.80
46159;DHT22;31888;44.512;26.104;2023-07-22T12:51:11;33.70;71.20
46159;DHT22;31888;44.512;26.104;2023-07-22T12:53:37;33.80;71.90
46159;DHT22;31888;44.512;26.104;2023-07-22T12:56:00;33.80;70.00
46159;DHT22;31888;44.512;26.104;2023-07-22T12:58:25;33.70;70.60
46159;DHT22;31888;44.512;26.104;2023-07-22T13:00:49;33.80;70.80
46159;DHT22;31888;44.512;26.104;2023-07-22T13:03:13;33.80;70.30
46159;DHT22;31888;44.512;26.104;2023-07-22T13:05:37;33.80;69.90
46159;DHT22;31888;44.512;26.104;2023-07-22T13:08:01;33.80;70.80
46159;DHT22;31888;44.512;26.104;2023-07-22T13:10:26;33.90;69.80
46159;DHT22;31888;44.512;26.104;2023-07-22T13:12:54;33.90;70.20
46159;DHT22;31888;44.512;26.104;2023-07-22T13:15:17;33.90;70.50
46159;DHT22;31888;44.512;26.104;2023-07-22T13:17:41;33.90;69.80
46159;DHT22;31888;44.512;26.104;2023-07-22T13:20:06;34.00;69.60
46159;DHT22;31888;44.512;26.104;2023-07-22T13:22:31;34.00;69.90
46159;DHT22;31888;44.512;26.104;2023-07-22T13:24:55;34.00;69.20
46159;DHT22;31888;44.512;26.104;2023-07-22T13:27:20;34.00;69.50
46159;DHT22;31888;44.512;26.104;2023-07-22T13:29:44;34.10;68.60
46159;DHT22;31888;44.512;26.104;2023-07-22T13:32:09;34.10;68.20
46159;DHT22;31888;44.512;26.104;2023-07-22T13:34:33;34.00;68.50
46159;DHT22;31888;44.512;26.104;2023-07-22T13:36:56;34.00;69.00
46159;DHT22;31888;44.512;26.104;2023-07-22T13:39:20;34.00;69.60
46159;DHT22;31888;44.512;26.104;2023-07-22T13:41:44;34.10;69.70
46159;DHT22;31888;44.512;26.104;2023-07-22T13:44:09;34.10;69.80
46159;DHT22;31888;44.512;26.104;2023-07-22T13:46:33;34.10;69.80
46159;DHT22;31888;44.512;26.104;2023-07-22T13:48:57;33.90;69.90
46159;DHT22;31888;44.512;26.104;2023-07-22T13:51:21;34.00;69.40
46159;DHT22;31888;44.512;26.104;2023-07-22T13:53:44;34.00;69.50
46159;DHT22;31888;44.512;26.104;2023-07-22T13:56:08;33.90;68.70
46159;DHT22;31888;44.512;26.104;2023-07-22T13:58:32;33.90;68.30
46159;DHT22;31888;44.512;26.104;2023-07-22T14:00:57;33.90;68.40
46159;DHT22;31888;44.512;26.104;2023-07-22T14:03:23;34.00;69.60
46159;DHT22;31888;44.512;26.104;2023-07-22T14:05:47;33.90;68.00
46159;DHT22;31888;44.512;26.104;2023-07-22T14:08:11;33.90;68.80
46159;DHT22;31888;44.512;26.104;2023-07-22T14:10:35;34.00;69.00
46159;DHT22;31888;44.512;26.104;2023-07-22T14:12:59;34.00;70.30
46159;DHT22;31888;44.512;26.104;2023-07-22T14:15:23;34.00;69.80
46159;DHT22;31888;44.512;26.104;2023-07-22T14:17:48;34.00;69.30
46159;DHT22;31888;44.512;26.104;2023-07-22T14:20:12;33.90;69.60
46159;DHT22;31888;44.512;26.104;2023-07-22T14:22:37;33.80;67.90
46159;DHT22;31888;44.512;26.104;2023-07-22T14:25:00;33.80;66.30
46159;DHT22;31888;44.512;26.104;2023-07-22T14:27:24;33.90;67.30
46159;DHT22;31888;44.512;26.104;2023-07-22T14:29:48;33.90;67.70
46159;DHT22;31888;44.512;26.104;2023-07-22T14:32:12;33.80;67.90
46159;DHT22;31888;44.512;26.104;2023-07-22T14:34:41;33.80;66.70
46159;DHT22;31888;44.512;26.104;2023-07-22T14:37:05;33.80;66.90
46159;DHT22;31888;44.512;26.104;2023-07-22T14:39:29;33.80;67.20
46159;DHT22;31888;44.512;26.104;2023-07-22T14:41:54;33.80;67.10
46159;DHT22;31888;44.512;26.104;2023-07-22T14:44:18;33.80;67.00
46159;DHT22;31888;44.512;26.104;2023-07-22T14:46:42;33.80;66.80
46159;DHT22;31888;44.512;26.104;2023-07-22T14:49:06;33.80;67.10
46159;DHT22;31888;44.512;26.104;2023-07-22T14:51:33;33.70;65.80
46159;DHT22;31888;44.512;26.104;2023-07-22T14:53:57;33.70;65.80
46159;DHT22;31888;44.512;26.104;2023-07-22T14:56:21;33.70;66.80
46159;DHT22;31888;44.512;26.104;2023-07-22T14:58:45;33.70;67.20
46159;DHT22;31888;44.512;26.104;2023-07-22T15:01:09;33.70;66.80